sensor_id;sensor_type;location;lat;lon;timestamp;P1;durP1;ratioP1;P2;durP2;ratioP2
21731;SDS011;11028;51.156;17.130;2022-08-11T00:01:43;10.07;;;4.85;;
21731;SDS011;11028;51.156;17.130;2022-08-11T00:09:03;10.80;;;4.32;;
21731;SDS011;11028;51.156;17.130;2022-08-11T00:16:23;6.40;;;5.22;;
21731;SDS011;11028;51.156;17.130;2022-08-11T00:23:41;8.98;;;5.03;;
21731;SDS011;11028;51.156;17.130;2022-08-11T00:31:03;9.20;;;5.50;;
21731;SDS011;11028;51.156;17.130;2022-08-11T00:38:23;4.60;;;4.07;;
21731;SDS011;11028;51.156;17.130;2022-08-11T00:45:42;9.85;;;4.20;;
21731;SDS011;11028;51.156;17.130;2022-08-11T00:53:25;4.55;;;3.90;;
21731;SDS011;11028;51.156;17.130;2022-08-11T01:00:57;8.10;;;3.95;;
21731;SDS011;11028;51.156;17.130;2022-08-11T01:24:17;6.65;;;3.95;;
21731;SDS011;11028;51.156;17.130;2022-08-11T01:47:33;5.03;;;3.40;;
21731;SDS011;11028;51.156;17.130;2022-08-11T01:55:11;5.53;;;3.40;;
21731;SDS011;11028;51.156;17.130;2022-08-11T02:02:36;6.82;;;3.65;;
21731;SDS011;11028;51.156;17.130;2022-08-11T02:10:17;7.38;;;3.70;;
21731;SDS011;11028;51.156;17.130;2022-08-11T02:18:05;5.68;;;4.05;;
21731;SDS011;11028;51.156;17.130;2022-08-11T02:25:30;4.07;;;3.38;;
21731;SDS011;11028;51.156;17.130;2022-08-11T02:32:54;3.22;;;2.92;;
21731;SDS011;11028;51.156;17.130;2022-08-11T02:40:35;6.40;;;3.75;;
21731;SDS011;11028;51.156;17.130;2022-08-11T02:48:00;4.00;;;3.17;;
21731;SDS011;11028;51.156;17.130;2022-08-11T02:55:40;4.40;;;3.30;;
21731;SDS011;11028;51.156;17.130;2022-08-11T03:03:17;3.92;;;3.20;;
21731;SDS011;11028;51.156;17.130;2022-08-11T03:10:42;6.47;;;3.85;;
21731;SDS011;11028;51.156;17.130;2022-08-11T03:18:26;4.68;;;3.70;;
21731;SDS011;11028;51.156;17.130;2022-08-11T03:25:48;5.32;;;3.25;;
21731;SDS011;11028;51.156;17.130;2022-08-11T03:33:14;6.40;;;3.50;;
21731;SDS011;11028;51.156;17.130;2022-08-11T03:41:02;8.23;;;3.60;;
21731;SDS011;11028;51.156;17.130;2022-08-11T03:48:42;12.13;;;4.10;;
21731;SDS011;11028;51.156;17.130;2022-08-11T04:27:52;11.18;;;4.88;;
21731;SDS011;11028;51.156;17.130;2022-08-11T04:35:25;14.00;;;4.50;;
21731;SDS011;11028;51.156;17.130;2022-08-11T04:50:56;10.90;;;5.15;;
21731;SDS011;11028;51.156;17.130;2022-08-11T04:58:41;6.13;;;3.97;;
21731;SDS011;11028;51.156;17.130;2022-08-11T05:14:19;9.07;;;4.73;;
21731;SDS011;11028;51.156;17.130;2022-08-11T05:22:02;7.45;;;4.50;;
21731;SDS011;11028;51.156;17.130;2022-08-11T05:29:41;6.65;;;3.35;;
21731;SDS011;11028;51.156;17.130;2022-08-11T05:37:19;6.18;;;3.92;;
21731;SDS011;11028;51.156;17.130;2022-08-11T05:44:39;8.45;;;5.50;;
21731;SDS011;11028;51.156;17.130;2022-08-11T05:52:20;12.85;;;4.72;;
21731;SDS011;11028;51.156;17.130;2022-08-11T05:59:57;5.32;;;3.33;;
21731;SDS011;11028;51.156;17.130;2022-08-11T06:07:14;4.85;;;2.92;;
21731;SDS011;11028;51.156;17.130;2022-08-11T06:14:34;7.78;;;3.67;;
21731;SDS011;11028;51.156;17.130;2022-08-11T06:21:57;9.30;;;2.92;;
21731;SDS011;11028;51.156;17.130;2022-08-11T06:29:15;4.85;;;3.50;;
21731;SDS011;11028;51.156;17.130;2022-08-11T06:36:37;8.55;;;3.72;;
21731;SDS011;11028;51.156;17.130;2022-08-11T06:43:58;11.85;;;5.00;;
21731;SDS011;11028;51.156;17.130;2022-08-11T06:51:25;9.02;;;3.67;;
21731;SDS011;11028;51.156;17.130;2022-08-11T06:58:46;18.23;;;12.05;;
21731;SDS011;11028;51.156;17.130;2022-08-11T07:06:24;5.05;;;2.70;;
21731;SDS011;11028;51.156;17.130;2022-08-11T07:13:51;8.70;;;2.92;;
21731;SDS011;11028;51.156;17.130;2022-08-11T07:21:30;6.43;;;3.28;;
21731;SDS011;11028;51.156;17.130;2022-08-11T07:29:22;3.47;;;2.70;;
21731;SDS011;11028;51.156;17.130;2022-08-11T07:36:41;11.43;;;2.85;;
21731;SDS011;11028;51.156;17.130;2022-08-11T07:44:03;7.83;;;2.77;;
21731;SDS011;11028;51.156;17.130;2022-08-11T07:51:25;4.90;;;2.28;;
21731;SDS011;11028;51.156;17.130;2022-08-11T07:58:59;8.00;;;2.83;;
21731;SDS011;11028;51.156;17.130;2022-08-11T08:06:35;4.38;;;2.25;;
21731;SDS011;11028;51.156;17.130;2022-08-11T08:14:11;4.93;;;2.47;;
21731;SDS011;11028;51.156;17.130;2022-08-11T08:21:47;4.53;;;1.92;;
21731;SDS011;11028;51.156;17.130;2022-08-11T08:29:05;3.70;;;2.28;;
21731;SDS011;11028;51.156;17.130;2022-08-11T08:36:41;2.58;;;1.60;;
21731;SDS011;11028;51.156;17.130;2022-08-11T08:44:02;2.22;;;2.00;;
21731;SDS011;11028;51.156;17.130;2022-08-11T08:51:23;2.55;;;2.03;;
21731;SDS011;11028;51.156;17.130;2022-08-11T08:58:50;5.82;;;1.85;;
21731;SDS011;11028;51.156;17.130;2022-08-11T09:06:09;7.03;;;2.10;;
21731;SDS011;11028;51.156;17.130;2022-08-11T09:13:27;8.35;;;2.00;;
21731;SDS011;11028;51.156;17.130;2022-08-11T09:20:45;2.17;;;1.90;;
21731;SDS011;11028;51.156;17.130;2022-08-11T09:28:04;6.00;;;1.70;;
21731;SDS011;11028;51.156;17.130;2022-08-11T09:35:23;5.03;;;1.88;;
21731;SDS011;11028;51.156;17.130;2022-08-11T09:42:41;6.30;;;1.73;;
21731;SDS011;11028;51.156;17.130;2022-08-11T09:50:19;2.60;;;1.90;;
21731;SDS011;11028;51.156;17.130;2022-08-11T09:57:37;3.35;;;1.83;;
21731;SDS011;11028;51.156;17.130;2022-08-11T10:05:13;1.52;;;1.35;;
21731;SDS011;11028;51.156;17.130;2022-08-11T10:12:53;2.75;;;1.40;;
21731;SDS011;11028;51.156;17.130;2022-08-11T10:20:14;4.68;;;1.65;;
21731;SDS011;11028;51.156;17.130;2022-08-11T10:27:32;4.10;;;1.63;;
21731;SDS011;11028;51.156;17.130;2022-08-11T10:34:51;3.17;;;1.85;;
21731;SDS011;11028;51.156;17.130;2022-08-11T10:42:08;2.05;;;1.30;;
21731;SDS011;11028;51.156;17.130;2022-08-11T10:49:43;3.55;;;1.60;;
21731;SDS011;11028;51.156;17.130;2022-08-11T10:57:22;10.88;;;3.67;;
21731;SDS011;11028;51.156;17.130;2022-08-11T11:04:58;5.28;;;1.50;;
21731;SDS011;11028;51.156;17.130;2022-08-11T11:12:20;4.55;;;1.50;;
21731;SDS011;11028;51.156;17.130;2022-08-11T11:19:58;2.00;;;1.50;;
21731;SDS011;11028;51.156;17.130;2022-08-11T11:27:17;5.68;;;1.60;;
21731;SDS011;11028;51.156;17.130;2022-08-11T11:42:37;5.43;;;1.60;;
21731;SDS011;11028;51.156;17.130;2022-08-11T11:49:54;2.65;;;1.83;;
21731;SDS011;11028;51.156;17.130;2022-08-11T11:57:13;2.80;;;1.55;;
21731;SDS011;11028;51.156;17.130;2022-08-11T12:04:49;3.60;;;1.77;;
21731;SDS011;11028;51.156;17.130;2022-08-11T12:12:06;5.65;;;1.67;;
21731;SDS011;11028;51.156;17.130;2022-08-11T12:19:41;4.25;;;1.60;;
21731;SDS011;11028;51.156;17.130;2022-08-11T12:26:59;1.35;;;1.15;;
21731;SDS011;11028;51.156;17.130;2022-08-11T12:34:34;2.30;;;1.25;;
21731;SDS011;11028;51.156;17.130;2022-08-11T12:41:51;1.40;;;1.30;;
21731;SDS011;11028;51.156;17.130;2022-08-11T12:49:27;2.78;;;1.40;;
21731;SDS011;11028;51.156;17.130;2022-08-11T12:57:05;2.78;;;1.15;;
21731;SDS011;11028;51.156;17.130;2022-08-11T13:04:39;3.13;;;1.20;;
21731;SDS011;11028;51.156;17.130;2022-08-11T13:12:14;1.80;;;1.23;;
21731;SDS011;11028;51.156;17.130;2022-08-11T13:19:50;2.17;;;1.30;;
21731;SDS011;11028;51.156;17.130;2022-08-11T13:27:07;5.68;;;1.52;;
21731;SDS011;11028;51.156;17.130;2022-08-11T13:34:35;3.97;;;1.33;;
21731;SDS011;11028;51.156;17.130;2022-08-11T13:41:58;4.30;;;1.48;;
21731;SDS011;11028;51.156;17.130;2022-08-11T13:49:15;3.30;;;1.30;;
21731;SDS011;11028;51.156;17.130;2022-08-11T13:56:33;6.28;;;1.50;;
21731;SDS011;11028;51.156;17.130;2022-08-11T14:03:57;1.90;;;1.50;;
21731;SDS011;11028;51.156;17.130;2022-08-11T14:11:17;2.67;;;2.05;;
21731;SDS011;11028;51.156;17.130;2022-08-11T14:18:53;4.38;;;2.20;;
21731;SDS011;11028;51.156;17.130;2022-08-11T14:26:13;2.15;;;1.38;;
21731;SDS011;11028;51.156;17.130;2022-08-11T14:33:42;2.70;;;1.17;;
21731;SDS011;11028;51.156;17.130;2022-08-11T14:41:01;2.15;;;1.40;;
21731;SDS011;11028;51.156;17.130;2022-08-11T14:48:38;2.65;;;1.30;;
21731;SDS011;11028;51.156;17.130;2022-08-11T14:55:56;1.93;;;1.40;;
21731;SDS011;11028;51.156;17.130;2022-08-11T15:03:34;3.90;;;1.40;;
21731;SDS011;11028;51.156;17.130;2022-08-11T15:10:51;2.22;;;1.40;;
21731;SDS011;11028;51.156;17.130;2022-08-11T15:18:09;8.27;;;1.60;;
21731;SDS011;11028;51.156;17.130;2022-08-11T15:25:29;3.33;;;1.55;;
21731;SDS011;11028;51.156;17.130;2022-08-11T15:32:48;8.38;;;1.70;;
21731;SDS011;11028;51.156;17.130;2022-08-11T15:40:24;9.70;;;3.95;;
21731;SDS011;11028;51.156;17.130;2022-08-11T15:48:06;3.42;;;1.58;;
21731;SDS011;11028;51.156;17.130;2022-08-11T15:55:25;2.78;;;1.73;;
21731;SDS011;11028;51.156;17.130;2022-08-11T16:02:44;2.80;;;1.70;;
21731;SDS011;11028;51.156;17.130;2022-08-11T16:10:22;7.63;;;2.65;;
21731;SDS011;11028;51.156;17.130;2022-08-11T16:17:43;4.13;;;1.42;;
21731;SDS011;11028;51.156;17.130;2022-08-11T16:25:02;9.15;;;4.50;;
21731;SDS011;11028;51.156;17.130;2022-08-11T16:32:21;4.47;;;1.55;;
21731;SDS011;11028;51.156;17.130;2022-08-11T16:39:39;4.35;;;1.13;;
21731;SDS011;11028;51.156;17.130;2022-08-11T16:46:58;3.05;;;1.20;;
21731;SDS011;11028;51.156;17.130;2022-08-11T16:54:17;5.45;;;1.20;;
21731;SDS011;11028;51.156;17.130;2022-08-11T17:01:35;3.70;;;1.40;;
21731;SDS011;11028;51.156;17.130;2022-08-11T17:08:53;12.15;;;1.70;;
21731;SDS011;11028;51.156;17.130;2022-08-11T17:16:30;12.05;;;1.58;;
21731;SDS011;11028;51.156;17.130;2022-08-11T17:23:51;2.58;;;1.20;;
21731;SDS011;11028;51.156;17.130;2022-08-11T17:31:09;3.63;;;1.38;;
21731;SDS011;11028;51.156;17.130;2022-08-11T17:38:45;2.55;;;1.77;;
21731;SDS011;11028;51.156;17.130;2022-08-11T17:46:03;2.05;;;1.40;;
21731;SDS011;11028;51.156;17.130;2022-08-11T17:53:38;2.75;;;1.80;;
21731;SDS011;11028;51.156;17.130;2022-08-11T18:01:17;3.28;;;1.48;;
21731;SDS011;11028;51.156;17.130;2022-08-11T18:08:37;2.67;;;1.30;;
21731;SDS011;11028;51.156;17.130;2022-08-11T18:16:15;3.00;;;1.70;;
21731;SDS011;11028;51.156;17.130;2022-08-11T18:23:49;3.15;;;1.20;;
21731;SDS011;11028;51.156;17.130;2022-08-11T18:31:26;1.60;;;1.23;;
21731;SDS011;11028;51.156;17.130;2022-08-11T18:39:01;3.00;;;1.40;;
21731;SDS011;11028;51.156;17.130;2022-08-11T18:46:39;3.08;;;1.63;;
21731;SDS011;11028;51.156;17.130;2022-08-11T18:54:16;2.72;;;1.27;;
21731;SDS011;11028;51.156;17.130;2022-08-11T19:01:53;4.30;;;1.52;;
21731;SDS011;11028;51.156;17.130;2022-08-11T19:09:28;2.10;;;1.80;;
21731;SDS011;11028;51.156;17.130;2022-08-11T19:17:05;5.57;;;1.67;;
21731;SDS011;11028;51.156;17.130;2022-08-11T19:24:40;3.85;;;2.08;;
21731;SDS011;11028;51.156;17.130;2022-08-11T19:32:19;3.83;;;2.47;;
21731;SDS011;11028;51.156;17.130;2022-08-11T19:39:57;6.07;;;2.40;;
21731;SDS011;11028;51.156;17.130;2022-08-11T19:47:34;2.90;;;2.28;;
21731;SDS011;11028;51.156;17.130;2022-08-11T19:55:10;6.05;;;2.92;;
21731;SDS011;11028;51.156;17.130;2022-08-11T20:02:47;3.35;;;2.47;;
21731;SDS011;11028;51.156;17.130;2022-08-11T20:10:21;7.15;;;2.55;;
21731;SDS011;11028;51.156;17.130;2022-08-11T20:17:58;3.70;;;1.90;;
21731;SDS011;11028;51.156;17.130;2022-08-11T20:25:32;3.33;;;2.30;;
21731;SDS011;11028;51.156;17.130;2022-08-11T20:33:08;12.43;;;2.85;;
21731;SDS011;11028;51.156;17.130;2022-08-11T20:40:44;6.43;;;2.30;;
21731;SDS011;11028;51.156;17.130;2022-08-11T20:48:20;3.35;;;2.95;;
21731;SDS011;11028;51.156;17.130;2022-08-11T20:55:59;9.45;;;3.08;;
21731;SDS011;11028;51.156;17.130;2022-08-11T21:03:34;5.10;;;2.60;;
21731;SDS011;11028;51.156;17.130;2022-08-11T21:11:08;4.57;;;2.22;;
21731;SDS011;11028;51.156;17.130;2022-08-11T21:18:46;6.07;;;2.45;;
21731;SDS011;11028;51.156;17.130;2022-08-11T21:26:22;5.75;;;2.05;;
21731;SDS011;11028;51.156;17.130;2022-08-11T21:33:58;5.88;;;2.70;;
21731;SDS011;11028;51.156;17.130;2022-08-11T21:41:33;4.70;;;2.40;;
21731;SDS011;11028;51.156;17.130;2022-08-11T21:49:09;5.07;;;2.33;;
21731;SDS011;11028;51.156;17.130;2022-08-11T21:56:44;2.78;;;1.83;;
21731;SDS011;11028;51.156;17.130;2022-08-11T22:04:21;2.85;;;1.92;;
21731;SDS011;11028;51.156;17.130;2022-08-11T22:11:56;2.60;;;2.05;;
21731;SDS011;11028;51.156;17.130;2022-08-11T22:19:32;6.72;;;2.63;;
21731;SDS011;11028;51.156;17.130;2022-08-11T22:27:07;6.18;;;2.28;;
21731;SDS011;11028;51.156;17.130;2022-08-11T22:34:43;4.35;;;2.22;;
21731;SDS011;11028;51.156;17.130;2022-08-11T22:42:18;2.50;;;2.05;;
21731;SDS011;11028;51.156;17.130;2022-08-11T22:49:54;3.75;;;2.38;;
21731;SDS011;11028;51.156;17.130;2022-08-11T22:57:30;6.40;;;2.65;;
21731;SDS011;11028;51.156;17.130;2022-08-11T23:05:07;2.58;;;2.30;;
21731;SDS011;11028;51.156;17.130;2022-08-11T23:12:42;4.85;;;3.38;;
21731;SDS011;11028;51.156;17.130;2022-08-11T23:20:18;5.03;;;2.78;;
21731;SDS011;11028;51.156;17.130;2022-08-11T23:27:52;3.33;;;2.35;;
21731;SDS011;11028;51.156;17.130;2022-08-11T23:35:29;4.07;;;2.30;;
21731;SDS011;11028;51.156;17.130;2022-08-11T23:43:07;3.58;;;2.33;;
21731;SDS011;11028;51.156;17.130;2022-08-11T23:50:43;4.55;;;2.60;;
21731;SDS011;11028;51.156;17.130;2022-08-11T23:58:18;3.47;;;2.25;;
